Time;durP1;ratioP1;P1;durP2;ratioP2;P2;SDS_P1;SDS_P2;PMS_P1;PMS_P2;Temp;Humidity;BMP_temperature;BMP_pressure;BME280_temperature;BME280_humidity;BME280_pressure;Samples;Min_cycle;Max_cycle;Signal;HPM_P1;HPM_P2
2020/12/04 00:00:13;;;;;;;42.07;18.60;;;0.50;99.90;;;;;;5017265;28;20571;-91
2020/12/04 00:02:40;;;;;;;42.80;18.03;;;;;;;;;;5020591;28;20672;-88
2020/12/04 00:05:06;;;;;;;42.80;17.77;;;;;;;;;;5018223;28;20644;-89
2020/12/04 00:07:32;;;;;;;44.43;19.53;;;;;;;;;;5018434;28;20257;-89
2020/12/04 00:09:58;;;;;;;42.93;18.40;;;;;;;;;;5018869;28;20181;-89
2020/12/04 00:12:24;;;;;;;44.93;18.93;;;;;;;;;;5017921;28;20209;-91
2020/12/04 00:14:51;;;;;;;46.27;17.57;;;;;;;;;;5015290;28;20181;-92
2020/12/04 00:17:17;;;;;;;39.30;15.50;;;;;;;;;;4999244;28;20588;-92
2020/12/04 00:19:43;;;;;;;39.10;18.20;;;;;;;;;;5001083;28;20213;-90
2020/12/04 00:22:09;;;;;;;44.47;17.17;;;;;;;;;;5024394;28;20282;-91
2020/12/04 00:24:35;;;;;;;39.80;16.33;;;;;;;;;;5025546;28;20181;-90
2020/12/04 00:27:01;;;;;;;37.67;17.23;;;;;;;;;;5013670;28;20191;-91
2020/12/04 00:29:28;;;;;;;40.60;17.03;;;0.50;99.90;;;;;;5002530;28;20217;-93
2020/12/04 00:31:55;;;;;;;44.83;18.13;;;0.50;99.90;;;;;;4998729;28;20594;-93
2020/12/04 00:34:21;;;;;;;49.73;20.50;;;;;;;;;;5016081;28;20176;-92
2020/12/04 00:36:48;;;;;;;41.20;19.13;;;0.40;99.90;;;;;;5016433;28;20188;-91
2020/12/04 00:39:14;;;;;;;39.57;18.33;;;;;;;;;;4998613;28;20192;-92
2020/12/04 00:41:40;;;;;;;41.77;17.27;;;;;;;;;;5016229;28;20184;-92
2020/12/04 00:44:06;;;;;;;33.37;15.63;;;;;;;;;;5015838;28;20316;-92
2020/12/04 00:46:32;;;;;;;44.37;17.77;;;;;;;;;;4998555;28;20283;-93
2020/12/04 00:48:58;;;;;;;40.47;17.57;;;;;;;;;;5015953;28;20247;-92
2020/12/04 00:51:24;;;;;;;43.07;17.40;;;;;;;;;;4982100;28;20642;-93
2020/12/04 00:53:50;;;;;;;31.50;14.77;;;;;;;;;;4998361;28;20188;-94
2020/12/04 00:56:17;;;;;;;37.87;17.03;;;;;;;;;;5015380;28;20651;-93
2020/12/04 00:58:46;;;;;;;35.70;16.47;;;0.60;99.90;;;;;;5015991;28;20210;-92
2020/12/04 01:01:12;;;;;;;43.23;17.30;;;;;;;;;;4998405;28;20211;-92
2020/12/04 01:03:38;;;;;;;38.47;16.27;;;;;;;;;;4998226;28;20699;-91
2020/12/04 01:06:04;;;;;;;36.00;16.87;;;0.60;99.90;;;;;;4998197;28;20193;-92
2020/12/04 01:08:30;;;;;;;37.00;15.60;;;;;;;;;;4997759;28;20204;-92
2020/12/04 01:10:57;;;;;;;45.17;18.27;;;;;;;;;;4998230;28;20177;-91
2020/12/04 01:13:23;;;;;;;45.20;16.97;;;;;;;;;;4997677;28;20641;-91
2020/12/04 01:15:49;;;;;;;42.40;16.77;;;;;;;;;;4997959;28;20217;-91
2020/12/04 01:18:15;;;;;;;46.40;18.77;;;;;;;;;;4997616;28;20705;-92
2020/12/04 01:20:41;;;;;;;37.97;16.10;;;;;;;;;;4997761;28;20551;-91
2020/12/04 01:23:07;;;;;;;43.60;17.73;;;;;;;;;;4997580;28;20582;-90
2020/12/04 01:25:33;;;;;;;36.00;15.40;;;;;;;;;;5015350;28;20232;-93
2020/12/04 01:27:59;;;;;;;38.40;16.23;;;;;;;;;;5015310;28;20191;-93
2020/12/04 01:30:25;;;;;;;41.50;18.33;;;;;;;;;;4997522;28;20192;-91
2020/12/04 01:32:51;;;;;;;48.67;18.37;;;;;;;;;;4997607;28;20240;-93
2020/12/04 01:35:17;;;;;;;44.93;17.87;;;;;;;;;;4997326;28;20188;-95
2020/12/04 01:37:43;;;;;;;34.17;17.10;;;;;;;;;;4998059;28;20191;-93
2020/12/04 01:40:09;;;;;;;43.53;17.53;;;0.40;99.90;;;;;;5015273;28;20263;-92
2020/12/04 01:42:35;;;;;;;37.80;18.00;;;;;;;;;;4997850;28;20308;-92
2020/12/04 01:45:02;;;;;;;32.30;16.60;;;;;;;;;;4997742;28;20216;-94
2020/12/04 01:47:28;;;;;;;34.57;16.47;;;;;;;;;;4997510;28;20973;-93
2020/12/04 01:49:54;;;;;;;33.00;15.10;;;;;;;;;;5016011;28;20221;-92
2020/12/04 01:52:20;;;;;;;27.97;13.87;;;;;;;;;;4998302;28;20214;-90
2020/12/04 01:54:51;;;;;;;28.93;13.30;;;;;;;;;;4999213;28;20166;-93
2020/12/04 01:57:20;;;;;;;37.33;15.30;;;0.50;99.90;;;;;;5014599;28;20638;-94
2020/12/04 01:59:46;;;;;;;34.77;16.63;;;;;;;;;;4997568;28;20186;-93
2020/12/04 02:02:23;;;;;;;36.80;17.10;;;0.50;99.90;;;;;;4996893;28;20322;-91
2020/12/04 02:04:49;;;;;;;36.03;17.50;;;0.40;99.90;;;;;;5014674;28;20204;-91
2020/12/04 02:07:39;;;;;;;35.80;15.40;;;0.40;99.90;;;;;;5013416;28;20186;-90
2020/12/04 02:10:38;;;;;;;35.63;15.60;;;0.40;99.90;;;;;;5014609;28;20254;-91
2020/12/04 02:13:05;;;;;;;33.73;15.00;;;0.40;99.90;;;;;;4996862;28;20234;-92
2020/12/04 02:15:31;;;;;;;33.63;15.60;;;;;;;;;;4996618;28;20177;-91
2020/12/04 02:17:57;;;;;;;25.90;13.50;;;;;;;;;;5014103;28;20517;-92
2020/12/04 02:20:23;;;;;;;42.07;19.20;;;;;;;;;;4996724;28;20188;-91
2020/12/04 02:22:49;;;;;;;55.27;22.13;;;;;;;;;;4996401;28;20227;-92
2020/12/04 02:25:15;;;;;;;46.93;18.40;;;;;;;;;;4996371;28;20188;-92
2020/12/04 02:27:59;;;;;;;34.67;14.60;;;0.30;99.90;;;;;;4996643;28;20190;-91
2020/12/04 02:30:34;;;;;;;29.50;14.40;;;0.40;99.90;;;;;;5013893;28;20230;-91
2020/12/04 02:33:00;;;;;;;35.10;15.30;;;;;;;;;;5014363;28;20231;-91
2020/12/04 02:35:26;;;;;;;31.40;14.73;;;;;;;;;;4996352;28;20639;-90
2020/12/04 02:37:53;;;;;;;31.83;14.90;;;;;;;;;;4996455;28;20213;-91
2020/12/04 02:40:19;;;;;;;36.37;15.60;;;;;;;;;;4996369;28;20271;-90
2020/12/04 02:42:45;;;;;;;26.30;13.80;;;;;;;;;;5014015;28;20216;-91
2020/12/04 02:45:12;;;;;;;33.93;15.70;;;;;;;;;;4996611;28;20238;-91
2020/12/04 02:47:38;;;;;;;34.33;15.57;;;;;;;;;;4996442;28;20185;-92
2020/12/04 02:50:04;;;;;;;32.73;14.77;;;;;;;;;;5013943;28;20174;-92
2020/12/04 02:52:30;;;;;;;29.37;14.23;;;;;;;;;;5013303;28;20229;-92
2020/12/04 02:54:56;;;;;;;26.73;14.43;;;;;;;;;;5013664;28;20263;-92
2020/12/04 02:57:22;;;;;;;30.00;15.47;;;;;;;;;;4996066;28;20323;-92
2020/12/04 02:59:48;;;;;;;30.77;15.07;;;;;;;;;;5013810;28;20176;-93
2020/12/04 03:02:14;;;;;;;33.03;14.60;;;;;;;;;;4979602;28;20220;-91
2020/12/04 03:04:40;;;;;;;28.87;14.67;;;;;;;;;;5013701;28;20219;-92
2020/12/04 03:07:07;;;;;;;31.37;13.97;;;;;;;;;;5013430;28;20210;-92
2020/12/04 03:09:33;;;;;;;28.77;14.53;;;;;;;;;;5013287;28;20948;-91
2020/12/04 03:11:59;;;;;;;29.93;14.20;;;;;;;;;;4980027;28;20286;-93
2020/12/04 03:14:26;;;;;;;33.77;15.50;;;;;;;;;;5013374;28;20181;-93
2020/12/04 03:16:52;;;;;;;31.97;14.73;;;;;;;;;;5013793;28;20181;-93
2020/12/04 03:19:18;;;;;;;36.90;16.47;;;;;;;;;;4995397;28;20206;-92
2020/12/04 03:21:44;;;;;;;39.63;16.33;;;;;;;;;;5013432;28;20181;-93
2020/12/04 03:24:10;;;;;;;31.07;14.73;;;;;;;;;;4995823;28;20215;-92
2020/12/04 03:26:36;;;;;;;31.80;15.57;;;;;;;;;;4979566;28;20200;-92
2020/12/04 03:29:02;;;;;;;26.27;13.83;;;;;;;;;;5013508;28;20187;-93
2020/12/04 03:31:28;;;;;;;29.00;14.10;;;;;;;;;;4979311;28;20710;-92
2020/12/04 03:33:54;;;;;;;29.07;13.20;;;;;;;;;;4996011;28;20189;-92
2020/12/04 03:36:20;;;;;;;30.57;14.50;;;;;;;;;;5012840;28;20207;-93
2020/12/04 03:38:47;;;;;;;34.53;13.73;;;;;;;;;;4995709;28;20195;-92
2020/12/04 03:41:13;;;;;;;32.33;14.50;;;;;;;;;;4979540;28;20209;-92
2020/12/04 03:43:42;;;;;;;32.00;13.97;;;0.60;99.90;;;;;;5012960;28;20238;-93
2020/12/04 03:46:09;;;;;;;31.17;14.70;;;0.60;99.90;;;;;;5013171;28;20179;-92
2020/12/04 03:48:36;;;;;;;33.70;15.27;;;;;;;;;;4995598;28;20957;-92
2020/12/04 03:51:02;;;;;;;32.33;15.07;;;;;;;;;;5013144;28;20187;-93
2020/12/04 03:53:28;;;;;;;33.43;16.03;;;;;;;;;;4995351;28;20185;-93
2020/12/04 03:55:54;;;;;;;28.73;13.20;;;;;;;;;;4995688;28;20188;-91
2020/12/04 03:58:20;;;;;;;28.17;13.83;;;;;;;;;;4979231;28;20192;-91
2020/12/04 04:00:46;;;;;;;26.60;12.87;;;;;;;;;;4995590;28;20217;-91
2020/12/04 04:03:12;;;;;;;31.10;15.13;;;;;;;;;;4995759;28;20217;-91
2020/12/04 04:05:38;;;;;;;39.07;15.90;;;;;;;;;;5012769;28;20185;-92
2020/12/04 04:08:04;;;;;;;31.83;14.77;;;;;;;;;;4995965;28;20173;-92
2020/12/04 04:10:30;;;;;;;36.43;16.07;;;;;;;;;;4979291;28;20707;-91
2020/12/04 04:12:57;;;;;;;38.20;15.37;;;;;;;;;;5013098;28;20215;-92
2020/12/04 04:15:23;;;;;;;36.30;15.07;;;;;;;;;;4995220;28;20625;-92
2020/12/04 04:17:49;;;;;;;36.07;15.60;;;;;;;;;;4995448;28;20185;-92
2020/12/04 04:20:15;;;;;;;40.60;14.83;;;;;;;;;;4995515;28;20286;-92
2020/12/04 04:22:41;;;;;;;30.60;15.27;;;;;;;;;;4995202;28;20229;-92
2020/12/04 04:25:07;;;;;;;35.13;15.43;;;;;;;;;;4995169;28;20181;-92
2020/12/04 04:27:33;;;;;;;40.43;17.77;;;;;;;;;;5012301;28;20187;-92
2020/12/04 04:29:59;;;;;;;37.77;17.63;;;;;;;;;;5013986;28;20541;-92
2020/12/04 04:32:25;;;;;;;35.20;16.50;;;;;;;;;;4982595;28;20296;-92
2020/12/04 04:34:51;;;;;;;33.10;16.20;;;;;;;;;;4977550;28;20183;-94
2020/12/04 04:37:17;;;;;;;34.53;15.97;;;;;;;;;;4976363;28;20191;-91
2020/12/04 04:39:43;;;;;;;38.90;17.00;;;;;;;;;;4975620;28;20255;-92
2020/12/04 04:42:10;;;;;;;36.73;14.97;;;0.70;99.90;;;;;;4977324;28;20216;-94
2020/12/04 04:44:36;;;;;;;33.57;15.50;;;;;;;;;;4974384;28;20265;-91
2020/12/04 04:47:02;;;;;;;30.73;14.13;;;;;;;;;;4975582;28;20551;-91
2020/12/04 04:49:33;;;;;;;35.33;15.73;;;0.70;99.90;;;;;;4974855;28;20546;-89
2020/12/04 04:52:01;;;;;;;33.70;16.47;;;0.70;99.90;;;;;;4975193;28;20170;-90
2020/12/04 04:54:27;;;;;;;34.97;14.93;;;0.80;99.90;;;;;;4974222;28;20275;-90
2020/12/04 04:56:53;;;;;;;31.67;15.03;;;;;;;;;;4975298;28;20213;-90
2020/12/04 04:59:20;;;;;;;37.23;15.87;;;0.80;99.90;;;;;;4975759;28;20180;-90
2020/12/04 05:01:47;;;;;;;32.97;15.73;;;0.70;99.90;;;;;;4975704;28;20655;-92
2020/12/04 05:04:16;;;;;;;36.50;15.07;;;0.70;99.90;;;;;;4958754;28;20272;-91
2020/12/04 05:06:42;;;;;;;36.30;15.53;;;;;;;;;;4975350;28;20183;-91
2020/12/04 05:09:15;;;;;;;33.07;14.00;;;0.70;99.90;;;;;;4973882;28;20255;-91
2020/12/04 05:11:54;;;;;;;32.93;14.93;;;0.70;99.90;;;;;;4975367;28;20170;-92
2020/12/04 05:14:23;;;;;;;30.20;13.87;;;;;;;;;;4975056;28;20189;-92
2020/12/04 05:16:52;;;;;;;33.43;14.97;;;0.70;99.90;;;;;;4974273;28;20185;-91
2020/12/04 05:19:29;;;;;;;35.80;15.33;;;0.70;99.90;;;;;;4975470;28;20673;-90
2020/12/04 05:21:55;;;;;;;39.50;15.73;;;;;;;;;;4973549;28;20635;-90
2020/12/04 05:24:28;;;;;;;34.23;15.73;;;0.80;99.90;;;;;;4973826;28;20538;-88
2020/12/04 05:26:54;;;;;;;40.03;16.20;;;;;;;;;;4974166;28;20178;-88
2020/12/04 05:29:20;;;;;;;36.57;15.40;;;;;;;;;;4974162;28;20186;-90
2020/12/04 05:31:46;;;;;;;34.00;16.37;;;;;;;;;;4984145;28;20240;-89
2020/12/04 05:34:22;;;;;;;35.93;16.67;;;1.00;99.90;;;;;;5014218;28;20261;-89
2020/12/04 05:36:51;;;;;;;37.97;16.03;;;0.90;99.90;;;;;;4995710;28;20177;-90
2020/12/04 05:39:17;;;;;;;33.63;15.03;;;;;;;;;;4980344;28;20614;-90
2020/12/04 05:41:49;;;;;;;37.40;16.30;;;0.80;99.90;;;;;;4995773;28;20187;-90
2020/12/04 05:44:17;;;;;;;37.43;15.33;;;0.80;99.90;;;;;;4996399;28;20185;-89
2020/12/04 05:46:53;;;;;;;32.23;15.33;;;0.70;99.90;;;;;;4995885;28;20258;-90
2020/12/04 05:49:19;;;;;;;40.67;17.63;;;;;;;;;;5000816;28;20202;-90
2020/12/04 05:51:48;;;;;;;33.50;15.13;;;0.80;99.90;;;;;;4996202;28;20243;-92
2020/12/04 05:54:14;;;;;;;36.87;16.07;;;;;;;;;;5014263;28;20180;-93
2020/12/04 05:56:40;;;;;;;37.23;16.53;;;;;;;;;;4996466;28;20267;-91
2020/12/04 05:59:09;;;;;;;35.70;15.73;;;0.80;99.90;;;;;;5014790;28;20253;-94
2020/12/04 06:01:35;;;;;;;43.17;19.37;;;;;;;;;;5014748;28;20184;-91
2020/12/04 06:04:01;;;;;;;46.57;18.53;;;;;;;;;;5014177;28;20223;-91
2020/12/04 06:06:29;;;;;;;49.43;20.87;;;0.80;99.90;;;;;;5013377;28;20639;-90
2020/12/04 06:09:07;;;;;;;41.20;17.00;;;0.80;99.90;;;;;;5013564;28;20186;-92
2020/12/04 06:11:35;;;;;;;43.00;17.77;;;0.80;99.90;;;;;;5010584;28;20204;-93
2020/12/04 06:14:02;;;;;;;40.20;17.93;;;;;;;;;;5014307;28;20560;-95
2020/12/04 06:16:28;;;;;;;33.97;14.53;;;;;;;;;;4995124;28;20213;-92
2020/12/04 06:18:54;;;;;;;34.53;15.67;;;;;;;;;;5013825;28;20192;-92
2020/12/04 06:21:49;;;;;;;33.57;16.83;;;2.90;99.90;;;;;;5014584;28;20184;-95
2020/12/04 06:24:15;;;;;;;39.70;15.03;;;;;;;;;;5022433;28;20189;-94
2020/12/04 06:26:49;;;;;;;33.03;15.30;;;1.60;99.90;;;;;;5020958;28;20173;-92
2020/12/04 06:29:15;;;;;;;29.40;13.40;;;;;;;;;;5014843;28;20176;-91
2020/12/04 06:31:41;;;;;;;30.60;14.07;;;;;;;;;;5013637;28;20233;-92
2020/12/04 06:34:22;;;;;;;30.60;14.00;;;1.10;99.90;;;;;;4995696;28;20197;-89
2020/12/04 06:36:49;;;;;;;29.83;14.67;;;1.10;99.90;;;;;;5013471;28;20177;-91
2020/12/04 06:39:29;;;;;;;31.33;13.97;;;-0.10;99.90;;;;;;5014113;28;20177;-91
2020/12/04 06:41:55;;;;;;;30.67;13.47;;;;;;;;;;5016087;28;20252;-93
2020/12/04 06:44:23;;;;;;;35.45;17.73;;;1.10;99.90;;;;;;5015913;28;20407;-93
2020/12/04 06:46:51;;;;;;;30.47;14.57;;;1.10;99.90;;;;;;5014927;28;20257;-93
2020/12/04 06:51:59;;;;;;;30.47;13.27;;;;;;;;;;5017474;28;20165;-95
2020/12/04 06:54:27;;;;;;;37.27;16.40;;;1.00;99.90;;;;;;5015943;28;20188;-94
2020/12/04 06:56:53;;;;;;;29.80;13.23;;;1.00;99.90;;;;;;4981135;28;20177;-92
2020/12/04 06:59:28;;;;;;;38.50;17.50;;;1.00;99.90;;;;;;4979956;28;20231;-92
2020/12/04 07:02:08;;;;;;;41.17;17.17;;;1.10;99.90;;;;;;4995223;28;20171;-93
2020/12/04 07:04:36;;;;;;;35.00;15.13;;;1.10;99.90;;;;;;5011431;28;20171;-90
2020/12/04 07:07:25;;;;;;;33.63;14.40;;;1.10;99.90;;;;;;5013231;28;20189;-91
2020/12/04 07:09:58;;;;;;;32.80;14.80;;;1.00;99.90;;;;;;5012432;28;20212;-94
2020/12/04 07:12:26;;;;;;;30.27;13.50;;;1.10;99.90;;;;;;5021060;28;20631;-95
2020/12/04 07:14:56;;;;;;;34.70;14.80;;;1.20;99.90;;;;;;5000822;28;20264;-90
2020/12/04 07:17:24;;;;;;;34.13;14.37;;;1.20;99.90;;;;;;5015038;28;20221;-88
2020/12/04 07:19:51;;;;;;;36.10;14.67;;;1.30;99.90;;;;;;5009403;28;20661;-90
2020/12/04 07:22:19;;;;;;;35.43;15.60;;;1.40;99.90;;;;;;5004201;28;20334;-91
2020/12/04 07:24:46;;;;;;;34.27;16.30;;;1.40;99.90;;;;;;4980596;28;20184;-93
2020/12/04 07:27:16;;;;;;;37.60;15.77;;;1.40;99.90;;;;;;4999660;28;20628;-93
2020/12/04 07:29:43;;;;;;;37.33;16.03;;;1.40;99.90;;;;;;4984747;28;20261;-90
2020/12/04 07:32:09;;;;;;;33.47;15.97;;;;;;;;;;4964069;28;20319;-93
2020/12/04 07:34:37;;;;;;;30.13;13.73;;;;;;;;;;5004018;28;20232;-90
2020/12/04 07:37:08;;;;;;;36.60;14.73;;;1.50;99.90;;;;;;4994952;28;20193;-90
2020/12/04 07:39:34;;;;;;;35.97;15.30;;;;;;;;;;4996401;28;20212;-91
2020/12/04 07:42:01;;;;;;;30.17;13.90;;;1.50;99.90;;;;;;5015360;28;20187;-90
2020/12/04 07:44:41;;;;;;;33.83;14.90;;;1.60;99.90;;;;;;5016012;28;20272;-88
2020/12/04 07:47:16;;;;;;;31.40;15.23;;;1.50;99.90;;;;;;4985065;28;20261;-93
2020/12/04 07:49:48;;;;;;;29.37;13.23;;;1.50;99.90;;;;;;4997910;28;20170;-92
2020/12/04 07:52:25;;;;;;;32.67;15.43;;;1.60;99.90;;;;;;4985018;28;20188;-90
2020/12/04 07:55:00;;;;;;;34.43;15.20;;;1.40;99.90;;;;;;4978677;28;20169;-88
2020/12/04 07:57:49;;;;;;;32.43;15.50;;;1.60;99.90;;;;;;5013077;28;20175;-89
2020/12/04 08:00:15;;;;;;;33.33;16.80;;;1.50;99.90;;;;;;5015120;28;20250;-90
2020/12/04 08:02:41;;;;;;;30.30;14.03;;;;;;;;;;5024869;28;20231;-92
2020/12/04 08:05:08;;;;;;;31.20;14.33;;;;;;;;;;5022466;28;20188;-93
2020/12/04 08:07:34;;;;;;;35.00;14.97;;;;;;;;;;5019611;28;20191;-93
2020/12/04 08:10:00;;;;;;;33.83;15.50;;;1.60;99.90;;;;;;5025934;28;20180;-93
2020/12/04 08:12:33;;;;;;;31.13;15.40;;;1.90;99.90;;;;;;4991765;28;20208;-94
2020/12/04 08:15:01;;;;;;;32.87;15.53;;;1.70;99.90;;;;;;5013824;28;20177;-92
2020/12/04 08:17:29;;;;;;;38.80;16.17;;;1.70;99.90;;;;;;5023932;28;20187;-93
2020/12/04 08:19:56;;;;;;;33.27;14.47;;;1.70;99.90;;;;;;5023677;28;20174;-93
2020/12/04 08:22:33;;;;;;;33.07;15.60;;;1.60;99.90;;;;;;5010067;28;20219;-92
2020/12/04 08:27:40;;;;;;;33.73;15.27;;;1.80;99.90;;;;;;5030808;28;20181;-92
2020/12/04 08:30:16;;;;;;;31.63;14.43;;;1.20;99.90;;;;;;5015076;28;20200;-91
2020/12/04 08:33:06;;;;;;;32.73;14.37;;;2.60;99.90;;;;;;5021090;28;20230;-93
2020/12/04 08:35:32;;;;;;;29.27;13.27;;;;;;;;;;4983859;28;20739;-93
2020/12/04 08:38:06;;;;;;;30.43;14.03;;;1.80;99.90;;;;;;5009147;28;20188;-90
2020/12/04 08:40:33;;;;;;;38.30;16.17;;;1.80;99.90;;;;;;5019288;28;20201;-92
2020/12/04 08:43:08;;;;;;;30.67;13.87;;;2.00;99.90;;;;;;5015483;28;20215;-91
2020/12/04 08:45:34;;;;;;;34.47;14.33;;;;;;;;;;4996877;28;20189;-90
2020/12/04 08:48:11;;;;;;;33.83;14.50;;;2.10;99.90;;;;;;5015801;28;20179;-91
2020/12/04 08:50:42;;;;;;;30.70;14.57;;;2.00;99.90;;;;;;4987849;28;20274;-94
2020/12/04 08:53:09;;;;;;;30.67;13.73;;;2.10;99.90;;;;;;5024222;28;20242;-94
2020/12/04 08:55:35;;;;;;;33.90;15.60;;;;;;;;;;5026737;28;20191;-93
2020/12/04 08:58:01;;;;;;;33.00;14.17;;;;;;;;;;5009279;28;20190;-93
2020/12/04 09:00:30;;;;;;;32.27;14.33;;;;;;;;;;5012934;28;20181;-94
2020/12/04 09:02:56;;;;;;;32.80;12.97;;;;;;;;;;5009849;28;20221;-96
2020/12/04 09:05:22;;;;;;;27.50;13.17;;;;;;;;;;5009500;28;20200;-93
2020/12/04 09:07:48;;;;;;;28.00;13.13;;;;;;;;;;5006201;28;20182;-93
2020/12/04 09:10:16;;;;;;;29.70;13.90;;;2.30;99.90;;;;;;5004841;28;20184;-92
2020/12/04 09:12:44;;;;;;;24.83;13.27;;;2.30;99.90;;;;;;5021718;28;20195;-93
2020/12/04 09:15:12;;;;;;;25.50;13.63;;;2.30;99.90;;;;;;5023843;28;20200;-94
2020/12/04 09:17:38;;;;;;;33.77;13.40;;;;;;;;;;5023692;28;20235;-95
2020/12/04 09:20:06;;;;;;;26.00;13.80;;;2.40;99.90;;;;;;4990118;28;20185;-94
2020/12/04 09:22:33;;;;;;;28.13;13.33;;;;;;;;;;5023904;28;20209;-93
2020/12/04 09:25:04;;;;;;;32.63;14.17;;;2.20;99.90;;;;;;5008810;28;20636;-95
2020/12/04 09:27:30;;;;;;;34.27;14.60;;;;;;;;;;5025536;28;20176;-94
2020/12/04 09:29:56;;;;;;;33.90;14.60;;;;;;;;;;5007713;28;20185;-94
2020/12/04 09:32:23;;;;;;;28.13;14.00;;;2.40;99.90;;;;;;4994838;28;20316;-94
2020/12/04 09:34:49;;;;;;;31.97;15.40;;;;;;;;;;5027145;28;20188;-94
2020/12/04 09:37:25;;;;;;;29.17;13.40;;;2.40;99.90;;;;;;5028225;28;20214;-95
2020/12/04 09:39:53;;;;;;;28.73;13.90;;;2.40;99.90;;;;;;5007082;28;20199;-94
2020/12/04 09:42:19;;;;;;;35.83;15.43;;;2.40;99.90;;;;;;5004147;28;20214;-94
2020/12/04 09:44:46;;;;;;;33.90;15.50;;;;;;;;;;5001918;28;20185;-95
2020/12/04 09:47:13;;;;;;;29.77;13.80;;;2.40;99.90;;;;;;5003401;28;20181;-92
2020/12/04 09:49:39;;;;;;;29.83;15.67;;;;;;;;;;5016818;28;20280;-91
2020/12/04 09:52:06;;;;;;;39.33;17.77;;;;;;;;;;4999857;28;20268;-92
2020/12/04 09:54:35;;;;;;;35.73;17.17;;;2.50;99.90;;;;;;5019128;28;20177;-92
2020/12/04 09:57:02;;;;;;;33.30;16.57;;;;;;;;;;5000719;28;20178;-94
2020/12/04 09:59:28;;;;;;;39.73;18.27;;;;;;;;;;5004458;28;20195;-93
2020/12/04 10:01:54;;;;;;;46.00;19.47;;;;;;;;;;5004301;28;20223;-94
2020/12/04 10:04:21;;;;;;;39.90;18.20;;;2.50;99.90;;;;;;5006775;28;20192;-95
2020/12/04 10:06:47;;;;;;;45.87;20.63;;;;;;;;;;5018542;28;20185;-93
2020/12/04 10:09:14;;;;;;;40.13;19.23;;;2.50;99.90;;;;;;5004867;28;20192;-94
2020/12/04 10:11:40;;;;;;;37.50;17.43;;;2.50;99.90;;;;;;5000547;28;20252;-95
2020/12/04 10:14:06;;;;;;;36.73;15.80;;;;;;;;;;5000555;28;20606;-96
2020/12/04 10:16:33;;;;;;;34.27;17.63;;;;;;;;;;5003165;28;20209;-95
2020/12/04 10:18:59;;;;;;;36.67;17.03;;;;;;;;;;5019815;28;20173;-95
2020/12/04 10:21:26;;;;;;;33.77;15.97;;;2.40;99.90;;;;;;5018855;28;20188;-93
2020/12/04 10:23:54;;;;;;;28.37;15.43;;;;;;;;;;5021202;28;20666;-95
2020/12/04 10:26:20;;;;;;;38.50;15.53;;;;;;;;;;5018235;28;20173;-95
2020/12/04 10:28:46;;;;;;;32.90;16.47;;;;;;;;;;4981823;28;20196;-94
2020/12/04 10:31:12;;;;;;;31.47;15.77;;;;;;;;;;4997660;28;20243;-94
2020/12/04 10:33:38;;;;;;;28.00;14.07;;;;;;;;;;4997251;28;20184;-91
2020/12/04 10:36:04;;;;;;;34.57;16.57;;;;;;;;;;4969642;28;20189;-95
2020/12/04 10:38:30;;;;;;;30.93;15.53;;;;;;;;;;5006550;28;20186;-96
2020/12/04 10:40:58;;;;;;;29.77;14.90;;;2.50;99.90;;;;;;4996186;28;20186;-96
2020/12/04 10:43:24;;;;;;;31.87;14.77;;;;;;;;;;5006391;28;20767;-94
2020/12/04 10:45:50;;;;;;;36.47;15.87;;;;;;;;;;4997455;28;20223;-92
2020/12/04 10:48:16;;;;;;;31.37;15.30;;;;;;;;;;5015010;28;20206;-93
2020/12/04 10:50:44;;;;;;;29.93;15.50;;;2.70;99.90;;;;;;4995634;28;20236;-94
2020/12/04 10:53:10;;;;;;;30.50;14.90;;;;;;;;;;5014920;28;20184;-95
2020/12/04 10:55:36;;;;;;;34.90;16.13;;;;;;;;;;5017858;28;20182;-93
2020/12/04 10:58:02;;;;;;;31.63;14.67;;;;;;;;;;4997951;28;20212;-94
2020/12/04 11:00:28;;;;;;;34.80;14.83;;;;;;;;;;5014763;28;20204;-96
2020/12/04 11:03:06;;;;;;;34.73;16.60;;;;;;;;;;5012595;28;20228;-92
2020/12/04 11:05:43;;;;;;;34.87;15.90;;;;;;;;;;4982004;28;20243;-95
2020/12/04 11:08:09;;;;;;;28.87;14.63;;;;;;;;;;5019046;28;20189;-93
2020/12/04 11:10:35;;;;;;;32.10;14.47;;;2.80;99.90;;;;;;4996623;28;20193;-94
2020/12/04 11:13:02;;;;;;;37.83;15.03;;;;;;;;;;4997349;28;20216;-92
2020/12/04 11:15:28;;;;;;;29.67;14.90;;;;;;;;;;5016376;28;20184;-91
2020/12/04 11:17:54;;;;;;;29.33;14.67;;;;;;;;;;4999208;28;20212;-96
2020/12/04 11:20:22;;;;;;;32.77;15.00;;;2.90;99.90;;;;;;4996564;28;20637;-94
2020/12/04 11:22:48;;;;;;;33.67;15.23;;;;;;;;;;4998388;28;20219;-95
2020/12/04 11:25:14;;;;;;;36.17;16.53;;;;;;;;;;5001266;28;20184;-95
2020/12/04 11:27:45;;;;;;;39.47;16.63;;;;;;;;;;5016377;28;20185;-95
2020/12/04 11:30:16;;;;;;;32.43;17.43;;;2.90;99.90;;;;;;4985203;28;20603;-95
2020/12/04 11:32:44;;;;;;;42.90;17.57;;;2.90;99.90;;;;;;4997044;28;20326;-93
2020/12/04 11:35:11;;;;;;;34.83;15.63;;;2.90;99.90;;;;;;5014824;28;20178;-92
2020/12/04 11:37:39;;;;;;;35.07;15.60;;;2.90;99.90;;;;;;4998763;28;20185;-88
2020/12/04 11:40:07;;;;;;;32.30;15.23;;;2.90;99.90;;;;;;5020233;28;20272;-92
2020/12/04 11:42:33;;;;;;;32.30;16.60;;;;;;;;;;5021063;28;20745;-95
2020/12/04 11:44:59;;;;;;;33.43;16.53;;;;;;;;;;5003785;28;20242;-95
2020/12/04 11:47:26;;;;;;;28.83;14.87;;;2.90;99.90;;;;;;5021368;28;20203;-95
2020/12/04 11:49:52;;;;;;;33.13;16.23;;;;;;;;;;5002683;28;20207;-94
2020/12/04 11:52:18;;;;;;;33.40;15.60;;;;;;;;;;5003106;28;20243;-94
2020/12/04 11:54:45;;;;;;;33.37;15.00;;;2.90;99.90;;;;;;4998976;28;20222;-88
2020/12/04 11:57:11;;;;;;;30.47;14.57;;;;;;;;;;5001200;28;20206;-93
2020/12/04 11:59:37;;;;;;;29.43;15.80;;;;;;;;;;4999359;28;20251;-92
2020/12/04 12:02:03;;;;;;;35.37;14.87;;;;;;;;;;4999194;28;20177;-93
2020/12/04 12:04:29;;;;;;;29.80;15.73;;;;;;;;;;4986895;28;20185;-95
2020/12/04 12:06:55;;;;;;;33.27;16.33;;;;;;;;;;4985746;28;20181;-96
2020/12/04 12:09:22;;;;;;;50.20;21.03;;;;;;;;;;5001285;28;20196;-92
2020/12/04 12:11:48;;;;;;;40.60;18.93;;;;;;;;;;5019066;28;20206;-91
2020/12/04 12:14:14;;;;;;;34.40;16.63;;;;;;;;;;5018239;28;20181;-95
2020/12/04 12:16:44;;;;;;;41.47;17.43;;;3.00;99.90;;;;;;4990206;28;20251;-92
2020/12/04 12:19:10;;;;;;;38.33;17.10;;;;;;;;;;4986157;28;20180;-95
2020/12/04 12:21:40;;;;;;;35.07;16.50;;;;;;;;;;5000643;28;20189;-95
2020/12/04 12:24:06;;;;;;;39.67;17.47;;;;;;;;;;5017194;28;20213;-91
2020/12/04 12:26:32;;;;;;;38.33;17.23;;;;;;;;;;4997742;28;20192;-89
2020/12/04 12:28:58;;;;;;;39.27;18.83;;;;;;;;;;5014535;28;20200;-92
2020/12/04 12:31:24;;;;;;;41.93;18.30;;;;;;;;;;5014663;28;20228;-90
2020/12/04 12:33:51;;;;;;;41.30;20.50;;;;;;;;;;4997559;28;20625;-92
2020/12/04 12:36:17;;;;;;;38.50;18.43;;;;;;;;;;5014677;28;20181;-90
2020/12/04 12:38:43;;;;;;;36.43;16.97;;;;;;;;;;4984242;28;20208;-93
2020/12/04 12:41:10;;;;;;;34.80;18.07;;;;;;;;;;4998979;28;20173;-93
2020/12/04 12:43:36;;;;;;;38.27;16.80;;;;;;;;;;5015623;28;20208;-92
2020/12/04 12:46:02;;;;;;;40.30;18.00;;;;;;;;;;4997582;28;20180;-91
2020/12/04 12:48:28;;;;;;;35.27;17.20;;;;;;;;;;5016500;28;20177;-92
2020/12/04 12:50:55;;;;;;;37.67;18.43;;;;;;;;;;5000468;28;20243;-92
2020/12/04 12:53:21;;;;;;;34.87;17.20;;;;;;;;;;4982357;28;20611;-91
2020/12/04 12:55:47;;;;;;;34.03;16.77;;;;;;;;;;5015685;28;20188;-93
2020/12/04 12:58:13;;;;;;;34.20;16.13;;;;;;;;;;4983210;28;20189;-93
2020/12/04 13:00:39;;;;;;;45.40;20.13;;;;;;;;;;4997841;28;20184;-91
2020/12/04 13:03:06;;;;;;;35.50;16.27;;;;;;;;;;4996857;28;20205;-93
2020/12/04 13:05:34;;;;;;;39.97;19.07;;;;;;;;;;4996769;28;20613;-91
2020/12/04 13:08:05;;;;;;;52.37;21.70;;;3.00;99.90;;;;;;4996113;28;20213;-93
2020/12/04 13:10:32;;;;;;;42.67;19.07;;;;;;;;;;4999957;28;20185;-94
2020/12/04 13:12:58;;;;;;;37.03;18.33;;;;;;;;;;4999917;28;20187;-95
2020/12/04 13:15:24;;;;;;;40.53;18.20;;;;;;;;;;5002220;28;20189;-93
2020/12/04 13:17:50;;;;;;;38.97;18.27;;;;;;;;;;4999914;28;20185;-92
2020/12/04 13:20:17;;;;;;;38.67;15.93;;;;;;;;;;5001666;28;20192;-95
2020/12/04 13:23:11;;;;;;;39.40;17.53;;;;;;;;;;5016249;28;20236;-93
2020/12/04 13:25:29;;;;;;;39.93;18.37;;;;;;;;;;5015649;28;20245;-95
2020/12/04 13:27:55;;;;;;;42.30;18.57;;;;;;;;;;4982925;28;20246;-94
2020/12/04 13:30:21;;;;;;;36.90;16.27;;;;;;;;;;5000860;28;20638;-93
2020/12/04 13:32:47;;;;;;;35.77;17.07;;;;;;;;;;5001670;28;20276;-94
2020/12/04 13:35:13;;;;;;;36.40;18.40;;;;;;;;;;5002216;28;20181;-96
2020/12/04 13:37:39;;;;;;;36.97;17.33;;;;;;;;;;5008288;28;20188;-94
2020/12/04 13:40:05;;;;;;;33.10;17.20;;;;;;;;;;5024204;28;20179;-94
2020/12/04 13:42:32;;;;;;;41.50;18.43;;;;;;;;;;4999116;28;20212;-91
2020/12/04 13:44:58;;;;;;;40.07;17.17;;;;;;;;;;4998610;28;20193;-94
2020/12/04 13:47:24;;;;;;;41.43;18.87;;;;;;;;;;4998920;28;20177;-95